sensor_id;sensor_type;location;lat;lon;timestamp;P1;durP1;ratioP1;P2;durP2;ratioP2
51179;SDS011;37243;49.814;8.652;2023-02-01T00:01:21;1.00;;;0.73;;
51179;SDS011;37243;49.814;8.652;2023-02-01T00:03:49;0.73;;;0.73;;
51179;SDS011;37243;49.814;8.652;2023-02-01T00:06:20;0.88;;;0.55;;
51179;SDS011;37243;49.814;8.652;2023-02-01T00:08:48;1.00;;;1.00;;
51179;SDS011;37243;49.814;8.652;2023-02-01T00:11:19;0.70;;;0.70;;
51179;SDS011;37243;49.814;8.652;2023-02-01T00:13:48;0.68;;;0.68;;
51179;SDS011;37243;49.814;8.652;2023-02-01T00:16:18;0.60;;;0.60;;
51179;SDS011;37243;49.814;8.652;2023-02-01T00:18:47;0.68;;;0.68;;
51179;SDS011;37243;49.814;8.652;2023-02-01T00:21:21;0.75;;;0.73;;
51179;SDS011;37243;49.814;8.652;2023-02-01T00:23:50;2.15;;;0.60;;
51179;SDS011;37243;49.814;8.652;2023-02-01T00:26:19;0.68;;;0.60;;
51179;SDS011;37243;49.814;8.652;2023-02-01T00:28:50;0.85;;;0.85;;
51179;SDS011;37243;49.814;8.652;2023-02-01T00:31:18;0.73;;;0.73;;
51179;SDS011;37243;49.814;8.652;2023-02-01T00:33:47;0.85;;;0.80;;
51179;SDS011;37243;49.814;8.652;2023-02-01T00:36:15;0.80;;;0.80;;
51179;SDS011;37243;49.814;8.652;2023-02-01T00:38:46;0.80;;;0.80;;
51179;SDS011;37243;49.814;8.652;2023-02-01T00:41:15;0.65;;;0.65;;
51179;SDS011;37243;49.814;8.652;2023-02-01T00:43:45;0.90;;;0.90;;
51179;SDS011;37243;49.814;8.652;2023-02-01T00:46:15;1.58;;;0.70;;
51179;SDS011;37243;49.814;8.652;2023-02-01T00:48:45;0.85;;;0.70;;
51179;SDS011;37243;49.814;8.652;2023-02-01T00:51:14;0.80;;;0.80;;
51179;SDS011;37243;49.814;8.652;2023-02-01T00:53:46;0.70;;;0.70;;
51179;SDS011;37243;49.814;8.652;2023-02-01T00:56:14;0.60;;;0.60;;
51179;SDS011;37243;49.814;8.652;2023-02-01T00:58:43;0.70;;;0.70;;
51179;SDS011;37243;49.814;8.652;2023-02-01T01:01:12;0.98;;;0.90;;
51179;SDS011;37243;49.814;8.652;2023-02-01T01:03:46;0.75;;;0.75;;
51179;SDS011;37243;49.814;8.652;2023-02-01T01:06:16;0.70;;;0.70;;
51179;SDS011;37243;49.814;8.652;2023-02-01T01:08:49;1.15;;;0.88;;
51179;SDS011;37243;49.814;8.652;2023-02-01T01:11:20;0.60;;;0.60;;
51179;SDS011;37243;49.814;8.652;2023-02-01T01:13:50;0.80;;;0.80;;
51179;SDS011;37243;49.814;8.652;2023-02-01T01:16:21;0.70;;;0.70;;
51179;SDS011;37243;49.814;8.652;2023-02-01T01:18:51;0.88;;;0.88;;
51179;SDS011;37243;49.814;8.652;2023-02-01T01:21:20;0.60;;;0.60;;
51179;SDS011;37243;49.814;8.652;2023-02-01T01:23:50;0.90;;;0.90;;
51179;SDS011;37243;49.814;8.652;2023-02-01T01:26:19;0.52;;;0.52;;
51179;SDS011;37243;49.814;8.652;2023-02-01T01:28:50;0.73;;;0.73;;
51179;SDS011;37243;49.814;8.652;2023-02-01T01:31:19;0.90;;;0.70;;
51179;SDS011;37243;49.814;8.652;2023-02-01T01:33:48;0.82;;;0.82;;
51179;SDS011;37243;49.814;8.652;2023-02-01T01:36:17;0.95;;;0.95;;
51179;SDS011;37243;49.814;8.652;2023-02-01T01:38:46;0.68;;;0.57;;
51179;SDS011;37243;49.814;8.652;2023-02-01T01:41:18;0.85;;;0.80;;
51179;SDS011;37243;49.814;8.652;2023-02-01T01:43:50;0.80;;;0.70;;
51179;SDS011;37243;49.814;8.652;2023-02-01T01:46:21;0.70;;;0.70;;
51179;SDS011;37243;49.814;8.652;2023-02-01T01:48:52;0.70;;;0.70;;
51179;SDS011;37243;49.814;8.652;2023-02-01T01:51:25;1.25;;;0.77;;
51179;SDS011;37243;49.814;8.652;2023-02-01T01:53:58;0.93;;;0.60;;
51179;SDS011;37243;49.814;8.652;2023-02-01T01:56:32;5.88;;;1.23;;
51179;SDS011;37243;49.814;8.652;2023-02-01T01:59:03;0.73;;;0.73;;
51179;SDS011;37243;49.814;8.652;2023-02-01T02:01:33;0.65;;;0.65;;
51179;SDS011;37243;49.814;8.652;2023-02-01T02:04:01;0.93;;;0.93;;
51179;SDS011;37243;49.814;8.652;2023-02-01T02:06:32;0.60;;;0.60;;
51179;SDS011;37243;49.814;8.652;2023-02-01T02:09:06;1.95;;;0.77;;
51179;SDS011;37243;49.814;8.652;2023-02-01T02:11:37;0.73;;;0.73;;
51179;SDS011;37243;49.814;8.652;2023-02-01T02:14:06;1.30;;;0.65;;
51179;SDS011;37243;49.814;8.652;2023-02-01T02:16:49;0.73;;;0.73;;
51179;SDS011;37243;49.814;8.652;2023-02-01T02:19:32;0.63;;;0.63;;
51179;SDS011;37243;49.814;8.652;2023-02-01T02:28:31;0.82;;;0.82;;
51179;SDS011;37243;49.814;8.652;2023-02-01T02:31:18;0.70;;;0.70;;
51179;SDS011;37243;49.814;8.652;2023-02-01T02:34:10;1.05;;;0.57;;
51179;SDS011;37243;49.814;8.652;2023-02-01T02:36:44;0.70;;;0.70;;
51179;SDS011;37243;49.814;8.652;2023-02-01T02:39:23;0.80;;;0.70;;
51179;SDS011;37243;49.814;8.652;2023-02-01T02:42:02;0.60;;;0.60;;
51179;SDS011;37243;49.814;8.652;2023-02-01T02:44:53;0.60;;;0.60;;
51179;SDS011;37243;49.814;8.652;2023-02-01T02:47:41;0.80;;;0.80;;
51179;SDS011;37243;49.814;8.652;2023-02-01T02:50:18;0.70;;;0.70;;
51179;SDS011;37243;49.814;8.652;2023-02-01T02:53:07;0.80;;;0.80;;
51179;SDS011;37243;49.814;8.652;2023-02-01T02:55:53;0.75;;;0.73;;
51179;SDS011;37243;49.814;8.652;2023-02-01T02:58:35;0.88;;;0.88;;
51179;SDS011;37243;49.814;8.652;2023-02-01T03:01:16;0.65;;;0.65;;
51179;SDS011;37243;49.814;8.652;2023-02-01T03:03:57;0.70;;;0.70;;
51179;SDS011;37243;49.814;8.652;2023-02-01T03:06:36;0.70;;;0.70;;
51179;SDS011;37243;49.814;8.652;2023-02-01T03:09:08;0.77;;;0.70;;
51179;SDS011;37243;49.814;8.652;2023-02-01T03:11:41;0.55;;;0.55;;
51179;SDS011;37243;49.814;8.652;2023-02-01T03:14:29;0.82;;;0.82;;
51179;SDS011;37243;49.814;8.652;2023-02-01T03:17:00;0.50;;;0.50;;
51179;SDS011;37243;49.814;8.652;2023-02-01T03:19:37;0.70;;;0.70;;
51179;SDS011;37243;49.814;8.652;2023-02-01T03:22:16;0.70;;;0.70;;
51179;SDS011;37243;49.814;8.652;2023-02-01T03:24:49;0.70;;;0.70;;
51179;SDS011;37243;49.814;8.652;2023-02-01T03:27:23;0.60;;;0.60;;
51179;SDS011;37243;49.814;8.652;2023-02-01T03:29:56;0.60;;;0.60;;
51179;SDS011;37243;49.814;8.652;2023-02-01T03:32:30;0.88;;;0.88;;
51179;SDS011;37243;49.814;8.652;2023-02-01T03:35:20;0.65;;;0.65;;
51179;SDS011;37243;49.814;8.652;2023-02-01T03:38:00;0.65;;;0.65;;
51179;SDS011;37243;49.814;8.652;2023-02-01T03:40:32;0.60;;;0.60;;
51179;SDS011;37243;49.814;8.652;2023-02-01T03:43:04;0.80;;;0.80;;
51179;SDS011;37243;49.814;8.652;2023-02-01T03:45:39;1.20;;;0.88;;
51179;SDS011;37243;49.814;8.652;2023-02-01T03:48:11;0.70;;;0.70;;
51179;SDS011;37243;49.814;8.652;2023-02-01T03:50:43;0.60;;;0.60;;
51179;SDS011;37243;49.814;8.652;2023-02-01T03:53:18;0.50;;;0.50;;
51179;SDS011;37243;49.814;8.652;2023-02-01T03:55:49;0.88;;;0.88;;
51179;SDS011;37243;49.814;8.652;2023-02-01T03:58:19;0.70;;;0.70;;
51179;SDS011;37243;49.814;8.652;2023-02-01T04:00:50;0.65;;;0.65;;
51179;SDS011;37243;49.814;8.652;2023-02-01T04:03:20;0.82;;;0.82;;
51179;SDS011;37243;49.814;8.652;2023-02-01T04:05:50;0.77;;;0.77;;
51179;SDS011;37243;49.814;8.652;2023-02-01T04:08:21;0.70;;;0.70;;
51179;SDS011;37243;49.814;8.652;2023-02-01T04:10:50;0.82;;;0.82;;
51179;SDS011;37243;49.814;8.652;2023-02-01T04:13:19;0.70;;;0.70;;
51179;SDS011;37243;49.814;8.652;2023-02-01T04:15:47;0.70;;;0.70;;
51179;SDS011;37243;49.814;8.652;2023-02-01T04:18:17;0.70;;;0.70;;
51179;SDS011;37243;49.814;8.652;2023-02-01T04:20:45;0.80;;;0.80;;
51179;SDS011;37243;49.814;8.652;2023-02-01T04:23:13;0.80;;;0.80;;
51179;SDS011;37243;49.814;8.652;2023-02-01T04:25:45;0.80;;;0.80;;
51179;SDS011;37243;49.814;8.652;2023-02-01T04:28:13;0.77;;;0.77;;
51179;SDS011;37243;49.814;8.652;2023-02-01T04:30:41;1.83;;;0.75;;
51179;SDS011;37243;49.814;8.652;2023-02-01T04:33:10;0.88;;;0.88;;
51179;SDS011;37243;49.814;8.652;2023-02-01T04:35:39;0.88;;;0.80;;
51179;SDS011;37243;49.814;8.652;2023-02-01T04:38:07;1.20;;;0.73;;
51179;SDS011;37243;49.814;8.652;2023-02-01T04:40:35;0.88;;;0.88;;
51179;SDS011;37243;49.814;8.652;2023-02-01T04:43:06;0.73;;;0.73;;
51179;SDS011;37243;49.814;8.652;2023-02-01T04:45:34;0.75;;;0.75;;
51179;SDS011;37243;49.814;8.652;2023-02-01T04:48:03;1.02;;;0.82;;
51179;SDS011;37243;49.814;8.652;2023-02-01T04:50:32;0.98;;;0.70;;
51179;SDS011;37243;49.814;8.652;2023-02-01T04:53:00;0.70;;;0.70;;
51179;SDS011;37243;49.814;8.652;2023-02-01T04:55:28;0.80;;;0.80;;
51179;SDS011;37243;49.814;8.652;2023-02-01T04:57:57;0.80;;;0.80;;
51179;SDS011;37243;49.814;8.652;2023-02-01T05:00:28;0.50;;;0.50;;
51179;SDS011;37243;49.814;8.652;2023-02-01T05:02:56;0.75;;;0.75;;
51179;SDS011;37243;49.814;8.652;2023-02-01T05:05:24;2.17;;;0.80;;
51179;SDS011;37243;49.814;8.652;2023-02-01T05:07:54;0.60;;;0.60;;
51179;SDS011;37243;49.814;8.652;2023-02-01T05:10:22;0.88;;;0.85;;
51179;SDS011;37243;49.814;8.652;2023-02-01T05:12:51;0.63;;;0.63;;
51179;SDS011;37243;49.814;8.652;2023-02-01T05:15:34;0.70;;;0.70;;
51179;SDS011;37243;49.814;8.652;2023-02-01T05:18:02;0.73;;;0.73;;
51179;SDS011;37243;49.814;8.652;2023-02-01T05:20:31;0.52;;;0.52;;
51179;SDS011;37243;49.814;8.652;2023-02-01T05:22:59;0.93;;;0.60;;
51179;SDS011;37243;49.814;8.652;2023-02-01T05:25:27;0.57;;;0.57;;
51179;SDS011;37243;49.814;8.652;2023-02-01T05:27:55;0.65;;;0.65;;
51179;SDS011;37243;49.814;8.652;2023-02-01T05:30:24;0.60;;;0.60;;
51179;SDS011;37243;49.814;8.652;2023-02-01T05:32:55;0.50;;;0.50;;
51179;SDS011;37243;49.814;8.652;2023-02-01T05:35:23;0.98;;;0.50;;
51179;SDS011;37243;49.814;8.652;2023-02-01T05:37:52;0.57;;;0.57;;
51179;SDS011;37243;49.814;8.652;2023-02-01T05:40:21;0.70;;;0.70;;
51179;SDS011;37243;49.814;8.652;2023-02-01T05:42:50;0.80;;;0.75;;
51179;SDS011;37243;49.814;8.652;2023-02-01T05:45:18;0.88;;;0.63;;
51179;SDS011;37243;49.814;8.652;2023-02-01T05:47:46;0.60;;;0.60;;
51179;SDS011;37243;49.814;8.652;2023-02-01T05:50:17;0.70;;;0.70;;
51179;SDS011;37243;49.814;8.652;2023-02-01T05:52:46;0.75;;;0.70;;
51179;SDS011;37243;49.814;8.652;2023-02-01T05:55:15;0.70;;;0.70;;
51179;SDS011;37243;49.814;8.652;2023-02-01T05:57:43;0.65;;;0.63;;
51179;SDS011;37243;49.814;8.652;2023-02-01T06:00:12;1.23;;;0.70;;
51179;SDS011;37243;49.814;8.652;2023-02-01T06:02:41;0.63;;;0.63;;
51179;SDS011;37243;49.814;8.652;2023-02-01T06:05:09;0.90;;;0.90;;
51179;SDS011;37243;49.814;8.652;2023-02-01T06:07:40;1.25;;;0.93;;
51179;SDS011;37243;49.814;8.652;2023-02-01T06:10:09;2.20;;;0.80;;
51179;SDS011;37243;49.814;8.652;2023-02-01T06:12:38;0.90;;;0.70;;
51179;SDS011;37243;49.814;8.652;2023-02-01T06:15:07;0.70;;;0.70;;
51179;SDS011;37243;49.814;8.652;2023-02-01T06:17:36;0.55;;;0.55;;
51179;SDS011;37243;49.814;8.652;2023-02-01T06:20:05;1.08;;;0.70;;
51179;SDS011;37243;49.814;8.652;2023-02-01T06:22:33;0.98;;;0.95;;
51179;SDS011;37243;49.814;8.652;2023-02-01T06:25:06;1.65;;;0.73;;
51179;SDS011;37243;49.814;8.652;2023-02-01T06:27:36;1.00;;;0.80;;
51179;SDS011;37243;49.814;8.652;2023-02-01T06:30:05;0.80;;;0.80;;
51179;SDS011;37243;49.814;8.652;2023-02-01T06:32:35;1.02;;;0.80;;
51179;SDS011;37243;49.814;8.652;2023-02-01T06:35:04;1.60;;;1.00;;
51179;SDS011;37243;49.814;8.652;2023-02-01T06:37:36;0.90;;;0.90;;
51179;SDS011;37243;49.814;8.652;2023-02-01T06:40:08;1.02;;;0.80;;
51179;SDS011;37243;49.814;8.652;2023-02-01T06:42:37;2.15;;;0.90;;
51179;SDS011;37243;49.814;8.652;2023-02-01T06:45:06;0.90;;;0.90;;
51179;SDS011;37243;49.814;8.652;2023-02-01T06:47:35;0.80;;;0.80;;
51179;SDS011;37243;49.814;8.652;2023-02-01T06:50:04;1.83;;;1.10;;
51179;SDS011;37243;49.814;8.652;2023-02-01T06:52:33;2.67;;;1.10;;
51179;SDS011;37243;49.814;8.652;2023-02-01T06:55:03;1.00;;;1.00;;
51179;SDS011;37243;49.814;8.652;2023-02-01T06:57:34;2.08;;;0.95;;
51179;SDS011;37243;49.814;8.652;2023-02-01T07:00:03;2.33;;;1.05;;
51179;SDS011;37243;49.814;8.652;2023-02-01T07:02:32;1.25;;;1.13;;
51179;SDS011;37243;49.814;8.652;2023-02-01T07:05:01;1.92;;;1.20;;
51179;SDS011;37243;49.814;8.652;2023-02-01T07:07:29;1.00;;;0.93;;
51179;SDS011;37243;49.814;8.652;2023-02-01T07:09:57;1.88;;;1.17;;
51179;SDS011;37243;49.814;8.652;2023-02-01T07:12:25;1.50;;;1.05;;
51179;SDS011;37243;49.814;8.652;2023-02-01T07:14:56;1.40;;;1.10;;
51179;SDS011;37243;49.814;8.652;2023-02-01T07:17:26;1.13;;;1.10;;
51179;SDS011;37243;49.814;8.652;2023-02-01T07:19:55;2.38;;;1.20;;
51179;SDS011;37243;49.814;8.652;2023-02-01T07:22:24;2.70;;;0.95;;
51179;SDS011;37243;49.814;8.652;2023-02-01T07:24:53;2.45;;;1.10;;
51179;SDS011;37243;49.814;8.652;2023-02-01T07:27:21;1.27;;;0.90;;
51179;SDS011;37243;49.814;8.652;2023-02-01T07:29:50;0.70;;;0.70;;
51179;SDS011;37243;49.814;8.652;2023-02-01T07:32:23;1.40;;;1.30;;
51179;SDS011;37243;49.814;8.652;2023-02-01T07:34:51;2.22;;;1.20;;
51179;SDS011;37243;49.814;8.652;2023-02-01T07:37:19;1.25;;;1.10;;
51179;SDS011;37243;49.814;8.652;2023-02-01T07:39:48;3.15;;;1.30;;
51179;SDS011;37243;49.814;8.652;2023-02-01T07:42:17;1.85;;;0.90;;
51179;SDS011;37243;49.814;8.652;2023-02-01T07:44:45;2.33;;;1.20;;
51179;SDS011;37243;49.814;8.652;2023-02-01T07:47:13;2.72;;;1.33;;
51179;SDS011;37243;49.814;8.652;2023-02-01T07:49:44;1.40;;;1.10;;
51179;SDS011;37243;49.814;8.652;2023-02-01T07:52:12;1.45;;;1.10;;
51179;SDS011;37243;49.814;8.652;2023-02-01T07:54:43;4.13;;;1.17;;
51179;SDS011;37243;49.814;8.652;2023-02-01T07:57:11;3.42;;;1.15;;
51179;SDS011;37243;49.814;8.652;2023-02-01T07:59:40;5.82;;;1.60;;
51179;SDS011;37243;49.814;8.652;2023-02-01T08:02:28;2.88;;;1.40;;
51179;SDS011;37243;49.814;8.652;2023-02-01T08:04:57;4.80;;;1.50;;
51179;SDS011;37243;49.814;8.652;2023-02-01T08:07:25;2.28;;;1.10;;
51179;SDS011;37243;49.814;8.652;2023-02-01T08:09:53;2.00;;;1.30;;
51179;SDS011;37243;49.814;8.652;2023-02-01T08:12:22;2.80;;;1.50;;
51179;SDS011;37243;49.814;8.652;2023-02-01T08:14:50;4.68;;;1.40;;
51179;SDS011;37243;49.814;8.652;2023-02-01T08:17:18;5.80;;;1.65;;
51179;SDS011;37243;49.814;8.652;2023-02-01T08:19:46;8.98;;;1.40;;
51179;SDS011;37243;49.814;8.652;2023-02-01T08:22:17;2.35;;;1.48;;
51179;SDS011;37243;49.814;8.652;2023-02-01T08:24:47;5.97;;;1.60;;
51179;SDS011;37243;49.814;8.652;2023-02-01T08:27:15;2.10;;;1.45;;
51179;SDS011;37243;49.814;8.652;2023-02-01T08:29:44;7.40;;;1.58;;
51179;SDS011;37243;49.814;8.652;2023-02-01T08:32:12;5.22;;;1.60;;
51179;SDS011;37243;49.814;8.652;2023-02-01T08:34:40;4.75;;;1.90;;
51179;SDS011;37243;49.814;8.652;2023-02-01T08:37:08;7.03;;;1.77;;
51179;SDS011;37243;49.814;8.652;2023-02-01T08:39:39;4.70;;;1.65;;
51179;SDS011;37243;49.814;8.652;2023-02-01T08:42:08;4.63;;;1.92;;
51179;SDS011;37243;49.814;8.652;2023-02-01T08:44:49;9.73;;;1.80;;
51179;SDS011;37243;49.814;8.652;2023-02-01T08:47:17;9.73;;;1.88;;
51179;SDS011;37243;49.814;8.652;2023-02-01T08:49:45;10.70;;;1.75;;
51179;SDS011;37243;49.814;8.652;2023-02-01T08:52:14;8.35;;;1.85;;
51179;SDS011;37243;49.814;8.652;2023-02-01T08:54:44;4.45;;;2.08;;
51179;SDS011;37243;49.814;8.652;2023-02-01T08:57:13;7.10;;;1.90;;
51179;SDS011;37243;49.814;8.652;2023-02-01T08:59:41;11.20;;;2.30;;
51179;SDS011;37243;49.814;8.652;2023-02-01T09:02:11;17.15;;;2.63;;
51179;SDS011;37243;49.814;8.652;2023-02-01T09:04:40;8.75;;;1.95;;
51179;SDS011;37243;49.814;8.652;2023-02-01T09:07:09;4.47;;;2.15;;
51179;SDS011;37243;49.814;8.652;2023-02-01T09:09:38;7.57;;;2.20;;
51179;SDS011;37243;49.814;8.652;2023-02-01T09:12:10;9.43;;;2.13;;
51179;SDS011;37243;49.814;8.652;2023-02-01T09:14:38;15.00;;;2.17;;
51179;SDS011;37243;49.814;8.652;2023-02-01T09:17:07;4.47;;;2.03;;
51179;SDS011;37243;49.814;8.652;2023-02-01T09:19:35;4.72;;;1.58;;
51179;SDS011;37243;49.814;8.652;2023-02-01T09:22:03;4.97;;;1.90;;
51179;SDS011;37243;49.814;8.652;2023-02-01T09:24:31;7.15;;;2.00;;
51179;SDS011;37243;49.814;8.652;2023-02-01T09:27:00;6.82;;;1.98;;
51179;SDS011;37243;49.814;8.652;2023-02-01T09:29:32;5.00;;;1.83;;
51179;SDS011;37243;49.814;8.652;2023-02-01T09:32:00;5.38;;;2.03;;
51179;SDS011;37243;49.814;8.652;2023-02-01T09:34:29;4.38;;;1.85;;
51179;SDS011;37243;49.814;8.652;2023-02-01T09:36:58;4.97;;;1.95;;
51179;SDS011;37243;49.814;8.652;2023-02-01T09:39:26;5.32;;;1.65;;
51179;SDS011;37243;49.814;8.652;2023-02-01T09:41:57;4.00;;;1.45;;
51179;SDS011;37243;49.814;8.652;2023-02-01T09:44:40;5.85;;;1.65;;
51179;SDS011;37243;49.814;8.652;2023-02-01T09:47:20;6.82;;;2.00;;
51179;SDS011;37243;49.814;8.652;2023-02-01T09:49:52;5.47;;;1.63;;
51179;SDS011;37243;49.814;8.652;2023-02-01T09:52:27;7.35;;;1.88;;
51179;SDS011;37243;49.814;8.652;2023-02-01T09:54:59;2.60;;;1.40;;
51179;SDS011;37243;49.814;8.652;2023-02-01T09:57:36;5.28;;;1.77;;
51179;SDS011;37243;49.814;8.652;2023-02-01T10:00:17;4.20;;;1.75;;
51179;SDS011;37243;49.814;8.652;2023-02-01T10:02:50;6.70;;;2.10;;
51179;SDS011;37243;49.814;8.652;2023-02-01T10:05:23;3.50;;;1.45;;
51179;SDS011;37243;49.814;8.652;2023-02-01T10:08:04;3.58;;;1.77;;
51179;SDS011;37243;49.814;8.652;2023-02-01T10:10:43;3.92;;;1.67;;
51179;SDS011;37243;49.814;8.652;2023-02-01T10:13:22;7.05;;;2.08;;
51179;SDS011;37243;49.814;8.652;2023-02-01T10:16:08;6.32;;;1.80;;
51179;SDS011;37243;49.814;8.652;2023-02-01T10:18:51;3.92;;;2.10;;
51179;SDS011;37243;49.814;8.652;2023-02-01T10:21:32;4.03;;;2.00;;
51179;SDS011;37243;49.814;8.652;2023-02-01T10:24:16;4.22;;;2.03;;
51179;SDS011;37243;49.814;8.652;2023-02-01T10:27:06;5.30;;;1.55;;
51179;SDS011;37243;49.814;8.652;2023-02-01T10:29:40;2.00;;;1.23;;
51179;SDS011;37243;49.814;8.652;2023-02-01T10:32:17;4.90;;;1.88;;
51179;SDS011;37243;49.814;8.652;2023-02-01T10:34:49;4.65;;;1.50;;
51179;SDS011;37243;49.814;8.652;2023-02-01T10:37:25;6.63;;;1.88;;
51179;SDS011;37243;49.814;8.652;2023-02-01T10:39:57;2.85;;;1.67;;
51179;SDS011;37243;49.814;8.652;2023-02-01T10:42:28;5.35;;;2.05;;
51179;SDS011;37243;49.814;8.652;2023-02-01T10:44:57;3.45;;;1.90;;
51179;SDS011;37243;49.814;8.652;2023-02-01T10:47:32;5.80;;;2.17;;
51179;SDS011;37243;49.814;8.652;2023-02-01T10:50:02;6.57;;;2.05;;
51179;SDS011;37243;49.814;8.652;2023-02-01T10:52:40;3.88;;;1.73;;
51179;SDS011;37243;49.814;8.652;2023-02-01T10:58:07;4.88;;;1.63;;
51179;SDS011;37243;49.814;8.652;2023-02-01T11:00:44;4.70;;;2.10;;
51179;SDS011;37243;49.814;8.652;2023-02-01T11:03:25;4.60;;;1.70;;
51179;SDS011;37243;49.814;8.652;2023-02-01T11:06:00;5.47;;;1.80;;
51179;SDS011;37243;49.814;8.652;2023-02-01T11:08:30;4.80;;;1.92;;
51179;SDS011;37243;49.814;8.652;2023-02-01T11:10:59;3.53;;;1.67;;
51179;SDS011;37243;49.814;8.652;2023-02-01T11:13:31;3.35;;;1.73;;
51179;SDS011;37243;49.814;8.652;2023-02-01T11:16:04;5.68;;;1.60;;
51179;SDS011;37243;49.814;8.652;2023-02-01T11:18:37;3.30;;;1.70;;
51179;SDS011;37243;49.814;8.652;2023-02-01T11:21:09;4.53;;;1.75;;
51179;SDS011;37243;49.814;8.652;2023-02-01T11:23:42;3.38;;;1.50;;
51179;SDS011;37243;49.814;8.652;2023-02-01T11:26:14;3.70;;;1.70;;
51179;SDS011;37243;49.814;8.652;2023-02-01T11:28:50;5.30;;;1.70;;
51179;SDS011;37243;49.814;8.652;2023-02-01T11:31:21;2.85;;;1.65;;
51179;SDS011;37243;49.814;8.652;2023-02-01T11:33:54;5.45;;;2.00;;
51179;SDS011;37243;49.814;8.652;2023-02-01T11:36:28;2.83;;;1.73;;
51179;SDS011;37243;49.814;8.652;2023-02-01T11:39:07;3.72;;;1.77;;
51179;SDS011;37243;49.814;8.652;2023-02-01T11:41:41;3.10;;;1.58;;
51179;SDS011;37243;49.814;8.652;2023-02-01T11:44:19;2.88;;;1.27;;
51179;SDS011;37243;49.814;8.652;2023-02-01T11:46:49;3.60;;;1.67;;
51179;SDS011;37243;49.814;8.652;2023-02-01T11:49:24;3.03;;;1.73;;
51179;SDS011;37243;49.814;8.652;2023-02-01T11:52:03;4.28;;;1.38;;
51179;SDS011;37243;49.814;8.652;2023-02-01T11:54:44;4.45;;;1.75;;
51179;SDS011;37243;49.814;8.652;2023-02-01T11:57:29;4.57;;;1.70;;
51179;SDS011;37243;49.814;8.652;2023-02-01T12:00:11;3.08;;;1.40;;
51179;SDS011;37243;49.814;8.652;2023-02-01T12:02:59;3.45;;;1.70;;
51179;SDS011;37243;49.814;8.652;2023-02-01T12:05:50;1.88;;;1.50;;
51179;SDS011;37243;49.814;8.652;2023-02-01T12:08:33;2.55;;;1.60;;
51179;SDS011;37243;49.814;8.652;2023-02-01T12:14:04;2.42;;;1.42;;
51179;SDS011;37243;49.814;8.652;2023-02-01T12:16:45;2.58;;;1.90;;
51179;SDS011;37243;49.814;8.652;2023-02-01T12:19:34;3.35;;;1.67;;
51179;SDS011;37243;49.814;8.652;2023-02-01T12:22:22;2.40;;;1.60;;
51179;SDS011;37243;49.814;8.652;2023-02-01T12:28:06;2.90;;;1.60;;
51179;SDS011;37243;49.814;8.652;2023-02-01T12:30:52;2.05;;;1.50;;
51179;SDS011;37243;49.814;8.652;2023-02-01T12:33:43;2.67;;;1.65;;
51179;SDS011;37243;49.814;8.652;2023-02-01T12:36:22;2.47;;;1.50;;
51179;SDS011;37243;49.814;8.652;2023-02-01T12:39:02;3.35;;;1.67;;
51179;SDS011;37243;49.814;8.652;2023-02-01T12:41:47;2.17;;;1.33;;
51179;SDS011;37243;49.814;8.652;2023-02-01T12:44:24;1.85;;;1.40;;
51179;SDS011;37243;49.814;8.652;2023-02-01T12:47:01;1.63;;;1.35;;
51179;SDS011;37243;49.814;8.652;2023-02-01T12:49:41;3.22;;;1.52;;
51179;SDS011;37243;49.814;8.652;2023-02-01T12:52:14;3.90;;;1.42;;
51179;SDS011;37243;49.814;8.652;2023-02-01T12:54:50;4.00;;;1.40;;
51179;SDS011;37243;49.814;8.652;2023-02-01T12:57:25;3.08;;;1.67;;
51179;SDS011;37243;49.814;8.652;2023-02-01T13:00:01;2.47;;;1.27;;
51179;SDS011;37243;49.814;8.652;2023-02-01T13:02:35;2.17;;;1.45;;
51179;SDS011;37243;49.814;8.652;2023-02-01T13:05:12;1.80;;;1.60;;
51179;SDS011;37243;49.814;8.652;2023-02-01T13:07:45;2.35;;;1.77;;
51179;SDS011;37243;49.814;8.652;2023-02-01T13:10:21;1.85;;;1.50;;
51179;SDS011;37243;49.814;8.652;2023-02-01T13:12:59;3.00;;;1.63;;
51179;SDS011;37243;49.814;8.652;2023-02-01T13:15:38;1.42;;;1.33;;
51179;SDS011;37243;49.814;8.652;2023-02-01T13:18:11;2.40;;;1.50;;
51179;SDS011;37243;49.814;8.652;2023-02-01T13:20:46;2.13;;;1.88;;
51179;SDS011;37243;49.814;8.652;2023-02-01T13:23:25;2.72;;;1.58;;
51179;SDS011;37243;49.814;8.652;2023-02-01T13:25:58;3.20;;;1.70;;
51179;SDS011;37243;49.814;8.652;2023-02-01T13:28:27;3.63;;;1.50;;
51179;SDS011;37243;49.814;8.652;2023-02-01T13:31:02;2.65;;;2.08;;
51179;SDS011;37243;49.814;8.652;2023-02-01T13:33:49;2.83;;;1.58;;
51179;SDS011;37243;49.814;8.652;2023-02-01T13:36:38;2.10;;;1.25;;
51179;SDS011;37243;49.814;8.652;2023-02-01T13:39:21;2.33;;;1.30;;
51179;SDS011;37243;49.814;8.652;2023-02-01T13:42:18;3.00;;;1.60;;
51179;SDS011;37243;49.814;8.652;2023-02-01T13:44:51;3.30;;;1.60;;
51179;SDS011;37243;49.814;8.652;2023-02-01T13:47:25;1.92;;;1.38;;
51179;SDS011;37243;49.814;8.652;2023-02-01T13:49:57;2.60;;;1.38;;
51179;SDS011;37243;49.814;8.652;2023-02-01T13:52:36;2.78;;;1.60;;
51179;SDS011;37243;49.814;8.652;2023-02-01T14:00:46;1.90;;;1.50;;
51179;SDS011;37243;49.814;8.652;2023-02-01T14:03:19;3.47;;;1.50;;
51179;SDS011;37243;49.814;8.652;2023-02-01T14:08:46;2.58;;;1.70;;
51179;SDS011;37243;49.814;8.652;2023-02-01T14:11:43;2.20;;;1.33;;
51179;SDS011;37243;49.814;8.652;2023-02-01T14:23:21;1.92;;;1.40;;
51179;SDS011;37243;49.814;8.652;2023-02-01T14:26:02;4.60;;;1.85;;
51179;SDS011;37243;49.814;8.652;2023-02-01T14:28:34;2.22;;;1.30;;
51179;SDS011;37243;49.814;8.652;2023-02-01T14:31:16;1.50;;;1.13;;
51179;SDS011;37243;49.814;8.652;2023-02-01T14:33:55;3.85;;;1.60;;
51179;SDS011;37243;49.814;8.652;2023-02-01T14:36:26;3.38;;;1.35;;
51179;SDS011;37243;49.814;8.652;2023-02-01T14:39:16;4.30;;;1.58;;
51179;SDS011;37243;49.814;8.652;2023-02-01T14:41:52;2.35;;;1.27;;
51179;SDS011;37243;49.814;8.652;2023-02-01T14:44:24;2.72;;;1.15;;
51179;SDS011;37243;49.814;8.652;2023-02-01T14:47:25;1.52;;;1.27;;
51179;SDS011;37243;49.814;8.652;2023-02-01T14:50:12;2.65;;;1.65;;
51179;SDS011;37243;49.814;8.652;2023-02-01T14:53:09;2.40;;;1.25;;
51179;SDS011;37243;49.814;8.652;2023-02-01T14:55:46;1.58;;;1.48;;
51179;SDS011;37243;49.814;8.652;2023-02-01T14:58:18;2.38;;;1.33;;
51179;SDS011;37243;49.814;8.652;2023-02-01T15:00:54;2.30;;;1.48;;
51179;SDS011;37243;49.814;8.652;2023-02-01T15:03:29;2.25;;;1.30;;
51179;SDS011;37243;49.814;8.652;2023-02-01T15:06:20;1.33;;;1.23;;
51179;SDS011;37243;49.814;8.652;2023-02-01T15:08:59;2.55;;;1.50;;
51179;SDS011;37243;49.814;8.652;2023-02-01T15:11:31;2.58;;;1.40;;
51179;SDS011;37243;49.814;8.652;2023-02-01T15:14:00;2.65;;;1.23;;
51179;SDS011;37243;49.814;8.652;2023-02-01T15:16:28;2.85;;;1.40;;
51179;SDS011;37243;49.814;8.652;2023-02-01T15:19:09;2.42;;;1.58;;
51179;SDS011;37243;49.814;8.652;2023-02-01T15:21:42;1.60;;;1.25;;
51179;SDS011;37243;49.814;8.652;2023-02-01T15:24:17;1.52;;;1.30;;
51179;SDS011;37243;49.814;8.652;2023-02-01T15:26:48;2.42;;;1.40;;
51179;SDS011;37243;49.814;8.652;2023-02-01T15:29:17;2.75;;;1.30;;
51179;SDS011;37243;49.814;8.652;2023-02-01T15:31:48;1.90;;;1.30;;
51179;SDS011;37243;49.814;8.652;2023-02-01T15:34:20;2.67;;;1.40;;
51179;SDS011;37243;49.814;8.652;2023-02-01T15:36:49;1.92;;;1.55;;
51179;SDS011;37243;49.814;8.652;2023-02-01T15:39:18;1.40;;;1.27;;
51179;SDS011;37243;49.814;8.652;2023-02-01T15:41:51;1.30;;;1.20;;
51179;SDS011;37243;49.814;8.652;2023-02-01T15:44:27;1.23;;;1.15;;
51179;SDS011;37243;49.814;8.652;2023-02-01T15:46:59;1.20;;;1.10;;
51179;SDS011;37243;49.814;8.652;2023-02-01T15:49:39;1.83;;;1.20;;
51179;SDS011;37243;49.814;8.652;2023-02-01T15:52:16;1.27;;;1.10;;
51179;SDS011;37243;49.814;8.652;2023-02-01T15:54:53;2.17;;;1.15;;
51179;SDS011;37243;49.814;8.652;2023-02-01T15:57:25;1.38;;;1.10;;